Shawnee, Wyoming
Current Conditions -  °F | °C
As of 7:53 PM on Monday 22 Dec 2014 (Local Time) from KDGW Reporting Station
Broken Clouds Broken Clouds  
Wind Chill: 16°   Ceiling: 5500
Heat Index: 31°   Visibility: 10mi
Dew Point: 20°   Wind: 31mph
Humidity: 64%   Direction: 320°NW
Pressure: 29.83"   Gusts: 41mph
Location:  42.75°N, 105.01°W
Report Text: KDGW 230253Z AUTO 32027G36KT 10SM BKN055 M01/M07 A2983 RMK AO2 PK WND 33038/0240 SLP131 T10061067 51017
Loading
Personal Weather Stations






























Interactive Weather Map New forecast layout! Learn more

10-Day Weather Forecast

Advertisements
Track Severe Weather on mobile